Time;durP1;ratioP1;P1;durP2;ratioP2;P2;SDS_P1;SDS_P2;PMS_P1;PMS_P2;Temp;Humidity;BMP_temperature;BMP_pressure;BME280_temperature;BME280_humidity;BME280_pressure;Samples;Min_cycle;Max_cycle;Signal;HPM_P1;HPM_P2
2021/10/10 00:00:41;;;;;;;23.02;11.97;;;;;;;4.92;55.03;102283.63;1765042;79;21137;-58
2021/10/10 00:03:07;;;;;;;22.13;12.43;;;;;;;4.92;55.20;102284.08;1763182;78;21082;-58
2021/10/10 00:05:34;;;;;;;18.15;11.18;;;;;;;4.92;55.00;102286.69;1765685;78;21077;-59
2021/10/10 00:08:01;;;;;;;24.87;12.53;;;;;;;4.91;54.97;102285.84;1768930;78;21026;-56
2021/10/10 00:10:27;;;;;;;21.68;11.95;;;;;;;4.91;54.87;102287.57;1741715;80;21082;-58
2021/10/10 00:12:54;;;;;;;24.47;11.75;;;;;;;4.92;54.71;102284.08;1763292;78;21138;-58
2021/10/10 00:15:20;;;;;;;19.67;11.08;;;;;;;4.93;54.48;102285.80;1773212;79;21007;-59
2021/10/10 00:17:47;;;;;;;23.67;12.20;;;;;;;4.96;54.36;102281.36;1743867;80;21137;-59
2021/10/10 00:20:13;;;;;;;19.57;12.05;;;;;;;4.98;54.22;102281.32;1745513;80;21059;-58
2021/10/10 00:22:39;;;;;;;22.67;12.13;;;;;;;4.98;54.12;102279.56;1773055;78;21135;-59
2021/10/10 00:25:07;;;;;;;20.02;11.38;;;;;;;5.01;54.11;102282.09;1782247;79;21555;-59
2021/10/10 00:27:35;;;;;;;18.73;11.20;;;;;;;5.02;53.93;102278.56;1773305;78;21049;-58
2021/10/10 00:30:03;;;;;;;23.07;11.70;;;;;;;5.01;53.66;102279.48;1772440;79;21512;-58
2021/10/10 00:32:30;;;;;;;19.92;12.33;;;;;;;4.99;54.00;102279.10;1744344;80;21551;-59
2021/10/10 00:34:57;;;;;;;18.45;11.60;;;;;;;4.96;53.89;102280.05;1768616;79;21662;-58
2021/10/10 00:37:24;;;;;;;22.22;12.33;;;;;;;4.94;54.06;102280.55;1740622;80;21082;-58
2021/10/10 00:39:50;;;;;;;20.00;10.82;;;;;;;4.99;54.12;102277.80;1770886;80;21358;-59
2021/10/10 00:42:17;;;;;;;26.97;11.38;;;;;;;5.05;54.09;102274.19;1765831;79;21058;-59
2021/10/10 00:44:47;;;;;;;20.60;11.05;;;;;;;5.13;53.94;102280.91;1714072;81;21087;-58
2021/10/10 00:47:13;;;;;;;22.00;11.83;;;;;;;5.21;53.64;102266.33;1707458;81;21230;-59
2021/10/10 00:49:41;;;;;;;23.12;11.75;;;;;;;5.28;53.65;102265.28;1674748;82;21030;-59
2021/10/10 00:52:08;;;;;;;21.57;11.80;;;;;;;5.34;53.63;102272.08;1698401;82;21047;-58
2021/10/10 00:54:36;;;;;;;22.32;11.48;;;;;;;5.39;54.04;102267.13;1703708;82;21060;-59
2021/10/10 00:57:05;;;;;;;19.30;11.00;;;;;;;5.43;54.51;102270.95;1695514;82;21064;-58
2021/10/10 00:59:35;;;;;;;25.82;11.73;;;;;;;5.43;54.15;102268.34;1691259;82;21145;-59
2021/10/10 01:02:01;;;;;;;21.25;10.85;;;;;;;5.44;53.75;102264.84;1683369;82;21079;-59
2021/10/10 01:04:27;;;;;;;20.70;11.65;;;;;;;5.47;53.90;102264.77;1692329;83;21100;-59
2021/10/10 01:06:54;;;;;;;18.37;11.00;;;;;;;5.48;53.74;102263.42;1697817;83;21523;-59
2021/10/10 01:09:20;;;;;;;20.62;11.80;;;;;;;5.50;53.35;102266.84;1688344;83;21095;-59
2021/10/10 01:11:47;;;;;;;19.02;11.10;;;;;;;5.55;53.43;102266.25;1679439;83;21810;-59
2021/10/10 01:14:13;;;;;;;18.45;10.43;;;;;;;5.61;53.76;102267.82;1683654;82;21058;-60
2021/10/10 01:16:39;;;;;;;20.48;10.78;;;;;;;5.63;53.27;102266.05;1691018;83;21699;-58
2021/10/10 01:19:07;;;;;;;19.62;10.55;;;;;;;5.64;53.42;102265.59;1692204;82;21088;-59
2021/10/10 01:21:33;;;;;;;18.27;10.30;;;;;;;5.64;53.40;102265.59;1700028;83;21015;-58
2021/10/10 01:24:00;;;;;;;23.80;12.05;;;;;;;5.65;53.69;102265.55;1687896;82;21139;-59
2021/10/10 01:26:26;;;;;;;18.60;9.63;;;;;;;5.67;53.85;102269.42;1690270;82;21059;-59
2021/10/10 01:28:52;;;;;;;18.52;10.58;;;;;;;5.67;53.93;102259.81;1669490;83;21082;-59
2021/10/10 01:31:18;;;;;;;17.32;10.40;;;;;;;5.70;54.59;102261.47;1688753;83;21081;-59
2021/10/10 01:33:45;;;;;;;17.73;10.40;;;;;;;5.72;54.31;102263.15;1679252;83;21520;-59
2021/10/10 01:36:12;;;;;;;15.13;9.38;;;;;;;5.73;54.33;102260.08;1701821;83;21481;-59
2021/10/10 01:38:41;;;;;;;19.40;11.48;;;;;;;5.76;54.57;102252.16;1670708;83;21047;-59
2021/10/10 01:41:08;;;;;;;20.43;11.70;;;;;;;5.78;54.48;102260.80;1752336;80;21097;-59
2021/10/10 01:43:35;;;;;;;21.07;11.08;;;;;;;5.80;54.95;102259.02;1758151;79;21031;-59
2021/10/10 01:46:02;;;;;;;22.07;11.85;;;;;;;5.84;55.00;102259.77;1756066;79;21110;-59
2021/10/10 01:48:29;;;;;;;19.50;10.43;;;;;;;5.87;54.80;102258.38;1744635;80;21188;-60
2021/10/10 01:50:56;;;;;;;20.30;10.03;;;;;;;5.94;54.46;102253.36;1755356;80;21094;-59
2021/10/10 01:53:23;;;;;;;22.42;10.68;;;;;;;6.01;53.94;102248.38;1760572;79;21126;-57
2021/10/10 01:55:49;;;;;;;16.12;9.48;;;;;;;6.09;53.83;102252.07;1759659;79;21740;-56
2021/10/10 01:58:16;;;;;;;17.32;9.58;;;;;;;6.13;54.53;102253.20;1740584;80;21015;-57
2021/10/10 02:00:42;;;;;;;18.42;9.93;;;;;;;6.18;54.48;102248.30;1735987;80;21110;-57
2021/10/10 02:03:08;;;;;;;18.80;9.70;;;;;;;6.22;54.01;102249.91;1761917;79;21552;-58
2021/10/10 02:05:35;;;;;;;19.52;9.60;;;;;;;6.27;53.50;102249.30;1739466;81;21085;-57
2021/10/10 02:08:01;;;;;;;19.42;11.10;;;;;;;6.31;53.78;102252.23;1767710;79;21049;-58
2021/10/10 02:10:27;;;;;;;21.70;9.05;;;;;;;6.36;53.51;102254.72;1773652;79;21058;-58
2021/10/10 02:12:54;;;;;;;13.85;7.97;;;;;;;6.37;52.76;102250.74;1741464;80;21253;-57
2021/10/10 02:15:20;;;;;;;16.82;8.73;;;;;;;6.40;52.13;102252.39;1769678;79;21010;-57
2021/10/10 02:17:46;;;;;;;20.00;8.35;;;;;;;6.42;51.14;102252.75;1769035;79;21677;-57
2021/10/10 02:20:14;;;;;;;15.90;8.00;;;;;;;6.46;50.52;102258.27;1755705;79;22050;-57
2021/10/10 02:22:41;;;;;;;14.75;8.18;;;;;;;6.49;50.40;102249.48;1742437;79;21074;-57
2021/10/10 02:25:08;;;;;;;17.20;9.63;;;;;;;6.53;50.07;102252.85;1735085;79;21583;-58
2021/10/10 02:27:34;;;;;;;13.95;8.38;;;;;;;6.54;49.76;102258.47;1761726;79;21106;-57
2021/10/10 02:30:00;;;;;;;14.87;8.20;;;;;;;6.56;49.85;102254.06;1762967;80;21074;-58
2021/10/10 02:32:27;;;;;;;18.20;8.78;;;;;;;6.59;49.80;102256.55;1762342;79;20979;-58
2021/10/10 02:34:53;;;;;;;16.10;8.65;;;;;;;6.59;49.57;102258.73;1766470;79;21479;-58
2021/10/10 02:37:19;;;;;;;14.78;8.25;;;;;;;6.60;49.01;102262.20;1773308;79;21158;-58
2021/10/10 02:39:46;;;;;;;18.50;8.35;;;;;;;6.62;49.05;102261.25;1764484;79;21050;-58
2021/10/10 02:42:12;;;;;;;16.40;8.60;;;;;;;6.63;48.51;102261.64;1769149;79;20996;-58
2021/10/10 02:44:38;;;;;;;14.28;8.30;;;;;;;6.66;48.49;102257.61;1732265;80;21779;-59
2021/10/10 02:47:05;;;;;;;12.78;7.60;;;;;;;6.69;48.46;102260.13;1740873;80;21050;-58
2021/10/10 02:49:31;;;;;;;17.42;8.13;;;;;;;6.73;48.44;102266.58;1768869;79;21804;-58
2021/10/10 02:51:58;;;;;;;13.88;8.48;;;;;;;6.73;48.51;102263.95;1734113;80;21110;-59
2021/10/10 02:54:24;;;;;;;18.70;8.18;;;;;;;6.74;48.39;102265.65;1749233;79;21023;-58
2021/10/10 02:56:50;;;;;;;18.75;8.75;;;;;;;6.74;48.57;102274.37;1736161;80;21038;-58
2021/10/10 02:59:16;;;;;;;15.98;7.65;;;;;;;6.74;48.77;102274.37;1753386;79;21057;-58
2021/10/10 03:01:43;;;;;;;14.87;8.78;;;;;;;6.75;48.59;102265.59;1752596;80;21192;-58
2021/10/10 03:04:09;;;;;;;16.55;8.80;;;;;;;6.78;48.58;102262.89;1754801;79;21739;-59
2021/10/10 03:06:36;;;;;;;15.25;8.10;;;;;;;6.78;48.46;102262.89;1758157;80;21062;-59
2021/10/10 03:09:02;;;;;;;16.57;8.03;;;;;;;6.76;48.32;102262.09;1730407;80;21062;-58
2021/10/10 03:11:29;;;;;;;16.02;7.62;;;;;;;6.75;48.34;102257.75;1697958;83;21741;-59
2021/10/10 03:13:56;;;;;;;14.85;7.65;;;;;;;6.76;48.63;102261.21;1753054;79;23298;-58
2021/10/10 03:16:22;;;;;;;14.53;8.38;;;;;;;6.76;48.68;102257.28;1753169;80;21086;-58
2021/10/10 03:18:48;;;;;;;15.38;8.80;;;;;;;6.76;48.83;102254.23;1729050;80;21125;-58
2021/10/10 03:21:15;;;;;;;15.25;7.45;;;;;;;6.74;48.56;102251.26;1745367;80;21496;-58
2021/10/10 03:23:41;;;;;;;18.90;7.92;;;;;;;6.74;48.62;102252.56;1714717;81;21143;-58
2021/10/10 03:26:08;;;;;;;16.85;8.45;;;;;;;6.73;48.50;102248.27;1755036;80;21156;-58
2021/10/10 03:28:34;;;;;;;19.50;9.13;;;;;;;6.70;48.29;102241.36;1703744;82;21711;-58
2021/10/10 03:31:02;;;;;;;16.15;8.93;;;;;;;6.68;48.37;102243.17;1753630;80;21115;-58
2021/10/10 03:33:29;;;;;;;16.87;8.78;;;;;;;6.64;48.46;102241.13;1756312;79;21027;-57
2021/10/10 03:35:55;;;;;;;15.72;8.80;;;;;;;6.62;48.72;102238.14;1746604;81;21022;-58
2021/10/10 03:38:22;;;;;;;15.23;9.18;;;;;;;6.58;48.89;102237.39;1756381;80;21052;-58
2021/10/10 03:40:48;;;;;;;16.77;8.88;;;;;;;6.57;48.61;102233.05;1741738;79;21019;-58
2021/10/10 03:43:14;;;;;;;14.70;8.50;;;;;;;6.55;48.62;102232.72;1750998;79;21599;-58
2021/10/10 03:45:40;;;;;;;19.75;8.78;;;;;;;6.54;48.78;102241.46;1750536;80;21102;-58
2021/10/10 03:48:07;;;;;;;14.23;8.58;;;;;;;6.51;48.81;102241.13;1694099;83;21548;-58
2021/10/10 03:50:34;;;;;;;17.37;8.45;;;;;;;6.50;48.70;102236.33;1741485;80;21176;-58
2021/10/10 03:53:00;;;;;;;13.80;8.40;;;;;;;6.48;48.82;102239.45;1753958;79;21066;-58
2021/10/10 03:55:35;;;;;;;14.60;8.15;;;;;;;6.46;48.71;102233.42;1751701;80;21030;-58
2021/10/10 03:58:01;;;;;;;15.15;8.40;;;;;;;6.41;48.47;102232.73;1740158;79;21505;-57
2021/10/10 04:00:29;;;;;;;15.35;8.45;;;;;;;6.37;48.74;102231.56;1756888;80;21520;-57
2021/10/10 04:02:58;;;;;;;14.38;8.33;;;;;;;6.34;48.93;102228.61;1747649;79;21076;-57
2021/10/10 04:07:51;;;;;;;14.30;8.50;;;;;;;6.30;48.77;102220.45;1757570;80;22187;-57
2021/10/10 04:10:18;;;;;;;15.23;8.43;;;;;;;6.27;49.12;102221.42;1763288;79;21040;-57
2021/10/10 04:12:45;;;;;;;14.58;7.85;;;;;;;6.28;48.80;102213.96;1745816;80;21660;-58
2021/10/10 04:15:12;;;;;;;19.17;9.33;;;;;;;6.26;48.94;102222.31;1765603;79;21075;-58
2021/10/10 04:17:41;;;;;;;13.93;7.85;;;;;;;6.25;49.04;102218.44;1752428;79;20993;-59
2021/10/10 04:20:10;;;;;;;11.45;7.78;;;;;;;6.24;49.22;102224.13;1753106;80;21042;-57
2021/10/10 04:22:38;;;;;;;17.45;9.15;;;;;;;6.23;49.05;102214.56;1755402;79;21540;-58
2021/10/10 04:25:05;;;;;;;14.18;8.38;;;;;;;6.23;49.05;102217.18;1756757;80;21094;-58
2021/10/10 04:27:34;;;;;;;15.35;7.47;;;;;;;6.24;49.19;102219.37;1751479;80;21103;-58
2021/10/10 04:30:02;;;;;;;14.45;8.38;;;;;;;6.25;49.06;102222.36;1751816;80;21075;-57
2021/10/10 04:32:28;;;;;;;14.63;8.25;;;;;;;6.25;49.28;102226.28;1741798;80;21635;-58
2021/10/10 04:34:54;;;;;;;15.88;8.48;;;;;;;6.26;49.40;102225.39;1757708;79;21121;-58
2021/10/10 04:37:21;;;;;;;15.65;7.85;;;;;;;6.27;48.96;102223.16;1740486;80;21081;-57
2021/10/10 04:39:49;;;;;;;13.50;7.85;;;;;;;6.28;49.12;102224.42;1749997;80;22064;-58
2021/10/10 04:42:16;;;;;;;13.95;7.60;;;;;;;6.29;49.62;102219.61;1733524;80;21031;-58
2021/10/10 04:44:42;;;;;;;11.25;7.17;;;;;;;6.30;49.37;102225.68;1760457;80;21408;-58
2021/10/10 04:47:09;;;;;;;17.48;7.97;;;;;;;6.30;49.23;102225.68;1757264;79;21149;-58
2021/10/10 04:49:35;;;;;;;15.95;8.40;;;;;;;6.30;49.53;102229.17;1748216;80;21042;-58
2021/10/10 04:52:02;;;;;;;19.50;7.92;;;;;;;6.32;49.57;102229.97;1763591;79;21944;-58
2021/10/10 04:54:33;;;;;;;15.18;8.88;;;;;;;6.32;49.24;102231.27;1723192;80;21034;-58
2021/10/10 04:56:59;;;;;;;12.80;7.53;;;;;;;6.33;49.23;102226.43;1719603;80;21086;-59
2021/10/10 04:59:25;;;;;;;14.00;8.40;;;;;;;6.33;49.07;102226.89;1715877;80;21591;-60
2021/10/10 05:01:52;;;;;;;13.48;7.17;;;;;;;6.31;48.90;102224.79;1688258;82;21026;-61
2021/10/10 05:04:18;;;;;;;15.40;8.03;;;;;;;6.33;49.14;102233.42;1673921;83;21100;-59
2021/10/10 05:06:44;;;;;;;14.25;7.92;;;;;;;6.31;49.36;102231.33;1736586;80;21134;-59
2021/10/10 05:09:12;;;;;;;15.13;7.40;;;;;;;6.32;49.23;102229.09;1694874;82;21058;-58
2021/10/10 05:11:38;;;;;;;11.85;6.60;;;;;;;6.31;49.34;102234.78;1687128;83;21662;-58
2021/10/10 05:14:04;;;;;;;19.25;8.30;;;;;;;6.31;49.42;102233.94;1740775;80;20971;-59
2021/10/10 05:16:31;;;;;;;12.98;7.62;;;;;;;6.33;49.32;102236.89;1721590;80;22261;-59
2021/10/10 05:18:57;;;;;;;12.20;7.85;;;;;;;6.35;49.51;102242.07;1738268;80;21019;-59
2021/10/10 05:21:24;;;;;;;12.18;7.00;;;;;;;6.39;49.33;102248.05;1717587;80;21579;-59
2021/10/10 05:23:50;;;;;;;15.05;7.10;;;;;;;6.40;49.45;102246.70;1737493;80;20960;-59
2021/10/10 05:26:16;;;;;;;12.90;6.87;;;;;;;6.44;49.35;102248.33;1702586;82;21536;-59
2021/10/10 05:28:43;;;;;;;15.08;8.70;;;;;;;6.48;49.42;102249.08;1701965;82;21145;-59
2021/10/10 05:31:09;;;;;;;13.32;8.00;;;;;;;6.51;49.04;102252.90;1742271;82;21570;-59
2021/10/10 05:33:36;;;;;;;17.10;7.95;;;;;;;6.55;49.22;102258.41;1695572;83;21004;-59
2021/10/10 05:36:03;;;;;;;16.40;7.60;;;;;;;6.58;49.11;102263.55;1737428;80;21039;-59
2021/10/10 05:38:29;;;;;;;15.03;7.70;;;;;;;6.58;48.98;102254.39;1725952;80;21033;-59
2021/10/10 05:40:56;;;;;;;16.62;8.50;;;;;;;6.59;48.99;102254.81;1738683;80;21132;-60
2021/10/10 05:43:22;;;;;;;12.43;6.60;;;;;;;6.64;48.84;102259.87;1740992;82;21049;-57
2021/10/10 05:45:49;;;;;;;12.82;7.78;;;;;;;6.65;49.24;102251.97;1700146;82;21070;-57
2021/10/10 05:48:16;;;;;;;12.50;7.17;;;;;;;6.69;49.22;102254.90;1742192;80;21069;-58
2021/10/10 05:50:42;;;;;;;12.80;7.55;;;;;;;6.71;49.23;102253.55;1741557;81;21065;-58
2021/10/10 05:53:09;;;;;;;15.72;7.17;;;;;;;6.71;48.92;102258.77;1744058;80;21079;-58
2021/10/10 05:55:39;;;;;;;14.07;7.25;;;;;;;6.73;49.26;102251.72;1752679;80;21110;-58
2021/10/10 05:58:08;;;;;;;17.70;7.80;;;;;;;6.76;49.34;102258.59;1751179;80;21094;-59
2021/10/10 06:00:34;;;;;;;13.40;7.53;;;;;;;6.76;49.38;102261.21;1751248;79;21000;-59
2021/10/10 06:03:00;;;;;;;14.15;7.60;;;;;;;6.79;49.54;102258.50;1754487;80;21129;-59
2021/10/10 06:05:26;;;;;;;14.15;7.22;;;;;;;6.82;49.54;102260.55;1739394;80;22585;-57
2021/10/10 06:07:53;;;;;;;14.33;7.78;;;;;;;6.86;49.43;102263.48;1745529;80;21050;-58
2021/10/10 06:10:19;;;;;;;11.73;7.42;;;;;;;6.91;49.56;102265.07;1750891;79;21042;-58
2021/10/10 06:12:45;;;;;;;16.90;8.38;;;;;;;6.97;49.38;102263.56;1738941;80;21133;-59
2021/10/10 06:15:12;;;;;;;16.07;7.20;;;;;;;6.99;49.02;102261.73;1750412;80;21093;-59
2021/10/10 06:17:38;;;;;;;18.45;7.62;;;;;;;7.01;49.09;102263.84;1756642;79;21562;-57
2021/10/10 06:20:06;;;;;;;12.53;7.42;;;;;;;7.06;49.08;102267.15;1755118;79;21810;-57
2021/10/10 06:22:34;;;;;;;14.93;8.43;;;;;;;7.10;48.95;102259.61;1691542;83;21099;-59
2021/10/10 06:25:00;;;;;;;12.58;7.40;;;;;;;7.15;48.58;102264.22;1759445;80;21496;-59
2021/10/10 06:27:27;;;;;;;16.00;6.97;;;;;;;7.17;48.58;102262.40;1741529;80;21066;-60
2021/10/10 06:29:53;;;;;;;13.58;7.00;;;;;;;7.24;48.46;102263.87;1759257;79;22326;-59
2021/10/10 06:32:20;;;;;;;16.20;7.33;;;;;;;7.31;47.98;102266.28;1757534;79;21004;-59
2021/10/10 06:34:46;;;;;;;12.50;6.95;;;;;;;7.38;47.85;102267.77;1753972;79;21047;-59
2021/10/10 06:37:12;;;;;;;15.68;7.25;;;;;;;7.43;48.07;102261.47;1756461;79;21043;-60
2021/10/10 06:39:39;;;;;;;15.40;7.25;;;;;;;7.50;47.79;102259.91;1756560;79;21078;-59
2021/10/10 06:42:06;;;;;;;15.48;7.92;;;;;;;7.53;47.30;102262.42;1755022;79;21227;-59
2021/10/10 06:44:35;;;;;;;14.47;7.78;;;;;;;7.55;47.49;102260.16;1752960;80;21040;-59
2021/10/10 06:47:02;;;;;;;13.45;7.15;;;;;;;7.59;47.49;102261.73;1753946;80;21062;-59
2021/10/10 06:49:28;;;;;;;16.70;8.25;;;;;;;7.67;48.03;102259.30;1752319;80;21387;-59
2021/10/10 06:51:55;;;;;;;17.50;6.87;;;;;;;7.75;48.33;102263.77;1755073;80;21023;-59
2021/10/10 06:54:21;;;;;;;19.52;8.10;;;;;;;7.82;47.70;102260.03;1753645;79;21985;-60
2021/10/10 06:56:48;;;;;;;12.03;7.47;;;;;;;7.88;47.74;102262.86;1754504;79;21040;-59
2021/10/10 06:59:14;;;;;;;12.68;7.67;;;;;;;7.96;47.62;102266.04;1753429;80;21051;-59
2021/10/10 07:01:40;;;;;;;11.12;6.37;;;;;;;8.03;47.55;102266.66;1759161;80;21106;-59
2021/10/10 07:04:07;;;;;;;13.68;7.10;;;;;;;8.10;47.29;102265.48;1721086;81;21103;-59
2021/10/10 07:06:33;;;;;;;13.68;7.25;;;;;;;8.17;47.35;102262.58;1715126;81;21069;-60
2021/10/10 07:09:00;;;;;;;14.60;7.45;;;;;;;8.28;46.97;102263.44;1716758;81;21122;-59
2021/10/10 07:11:26;;;;;;;11.53;7.03;;;;;;;8.34;46.48;102268.45;1752564;79;21055;-59
2021/10/10 07:13:53;;;;;;;17.00;7.67;;;;;;;8.37;46.23;102265.71;1743607;80;21165;-59
2021/10/10 07:16:27;;;;;;;13.45;6.92;;;;;;;8.45;45.99;102267.19;1764022;79;20968;-60
2021/10/10 07:18:51;;;;;;;14.47;7.78;;;;;;;8.55;45.87;102261.95;1737538;81;21131;-59
2021/10/10 07:21:22;;;;;;;14.30;7.25;;;;;;;8.59;45.57;102269.23;1764905;79;21409;-59
2021/10/10 07:26:21;;;;;;;12.93;7.53;;;;;;;8.73;45.98;102265.13;1753842;80;21048;-58
2021/10/10 07:28:47;;;;;;;12.70;7.70;;;;;;;8.82;45.91;102262.56;1753514;80;21524;-58
2021/10/10 07:31:14;;;;;;;12.73;7.45;;;;;;;8.85;45.23;102256.34;1741209;79;21042;-58
2021/10/10 07:33:40;;;;;;;17.45;8.38;;;;;;;8.90;45.04;102259.63;1760809;80;22023;-57
2021/10/10 07:36:07;;;;;;;15.40;8.33;;;;;;;8.98;45.33;102262.77;1757529;79;21085;-57
2021/10/10 07:38:33;;;;;;;20.90;9.13;;;;;;;9.09;45.11;102259.23;1742832;80;21632;-58
2021/10/10 07:41:00;;;;;;;11.45;6.85;;;;;;;9.20;44.83;102262.68;1756345;80;21049;-58
2021/10/10 07:43:28;;;;;;;13.43;8.03;;;;;;;9.29;44.28;102262.26;1757985;80;21168;-58
2021/10/10 07:45:54;;;;;;;14.05;7.83;;;;;;;9.39;44.50;102256.13;1757780;80;21039;-59
2021/10/10 07:48:20;;;;;;;12.35;7.47;;;;;;;9.49;44.71;102259.20;1742427;80;21119;-60
2021/10/10 07:50:47;;;;;;;16.10;7.70;;;;;;;9.59;43.93;102259.17;1752252;79;21043;-59
2021/10/10 07:53:14;;;;;;;16.30;8.33;;;;;;;9.68;43.79;102248.69;1756197;79;21501;-59
2021/10/10 07:55:41;;;;;;;13.00;7.55;;;;;;;9.76;43.09;102250.50;1714882;82;21085;-59
2021/10/10 07:58:07;;;;;;;11.95;7.05;;;;;;;9.81;43.26;102243.25;1731687;80;21820;-59
2021/10/10 08:00:33;;;;;;;12.07;7.25;;;;;;;9.88;43.44;102236.39;1695020;82;21167;-59
2021/10/10 08:03:01;;;;;;;12.82;7.37;;;;;;;9.94;43.02;102237.43;1734156;80;22154;-59
2021/10/10 08:05:29;;;;;;;17.73;7.55;;;;;;;10.01;43.02;102238.36;1731196;80;21513;-59
2021/10/10 08:07:57;;;;;;;10.82;6.67;;;;;;;10.08;42.90;102233.66;1734661;80;21820;-59
2021/10/10 08:10:23;;;;;;;18.98;7.65;;;;;;;10.15;42.59;102233.73;1735660;80;21070;-59
2021/10/10 08:12:51;;;;;;;10.90;6.22;;;;;;;10.22;42.61;102239.11;1734846;80;21084;-59
2021/10/10 08:15:17;;;;;;;13.25;6.97;;;;;;;10.28;42.64;102233.16;1706485;81;21054;-59
2021/10/10 08:17:44;;;;;;;10.25;5.53;;;;;;;10.37;42.65;102234.91;1737819;80;21078;-59
2021/10/10 08:20:10;;;;;;;13.15;5.72;;;;;;;10.46;42.51;102237.54;1732967;80;21138;-59
2021/10/10 08:22:38;;;;;;;10.50;6.03;;;;;;;10.54;42.12;102239.77;1739088;80;21031;-58
2021/10/10 08:25:11;;;;;;;12.28;6.97;;;;;;;10.62;41.95;102241.55;1712109;82;21093;-59
2021/10/10 08:27:38;;;;;;;12.75;6.60;;;;;;;10.70;41.97;102235.91;1736790;80;22179;-59
2021/10/10 08:30:11;;;;;;;10.28;5.62;;;;;;;10.80;41.49;102233.20;1703333;83;21548;-59
2021/10/10 08:32:38;;;;;;;16.85;7.17;;;;;;;10.88;41.49;102230.18;1744042;80;21100;-59
2021/10/10 08:35:06;;;;;;;11.70;6.10;;;;;;;10.95;41.86;102232.87;1741347;80;21089;-59
2021/10/10 08:37:33;;;;;;;13.98;6.37;;;;;;;11.00;41.40;102236.59;1713016;82;21074;-59
2021/10/10 08:39:59;;;;;;;16.60;6.60;;;;;;;11.04;41.68;102235.00;1736440;80;21046;-59
2021/10/10 08:42:31;;;;;;;14.93;7.58;;;;;;;11.09;41.50;102230.34;1734863;80;21319;-59
2021/10/10 08:45:06;;;;;;;13.38;6.33;;;;;;;11.12;41.16;102228.88;1732383;80;21121;-58
2021/10/10 08:47:31;;;;;;;11.97;6.22;;;;;;;11.18;40.97;102225.08;1735333;80;21089;-59
2021/10/10 08:49:59;;;;;;;10.72;4.75;;;;;;;11.24;40.94;102223.89;1714205;82;21654;-59
2021/10/10 08:52:25;;;;;;;10.53;5.35;;;;;;;11.32;39.92;102219.91;1735040;81;21376;-57
2021/10/10 08:54:51;;;;;;;8.85;4.62;;;;;;;11.43;40.10;102218.47;1743620;80;21110;-57
2021/10/10 08:57:19;;;;;;;9.23;5.35;;;;;;;11.55;40.22;102214.31;1759350;79;21151;-57
2021/10/10 08:59:49;;;;;;;8.53;4.35;;;;;;;11.69;39.70;102217.89;1739892;79;21473;-58
2021/10/10 09:02:30;;;;;;;9.08;4.10;;;;;;;11.84;39.54;102222.78;1742270;80;21090;-58
2021/10/10 09:04:50;;;;;;;8.75;3.40;;;;;;;11.98;39.66;102214.11;1760306;79;21347;-57
2021/10/10 09:07:16;;;;;;;7.60;3.58;;;;;;;12.13;38.43;102211.08;1741731;80;21007;-57
2021/10/10 09:09:43;;;;;;;7.40;2.87;;;;;;;12.26;36.98;102212.55;1754593;79;21575;-57
2021/10/10 09:12:11;;;;;;;9.13;3.90;;;;;;;12.37;37.27;102214.10;1762219;80;21035;-58
2021/10/10 09:14:49;;;;;;;10.18;4.08;;;;;;;12.49;37.15;102208.56;1755886;79;21052;-61
2021/10/10 09:17:20;;;;;;;6.97;3.45;;;;;;;12.59;37.00;102203.11;1758210;80;21783;-58
2021/10/10 09:19:53;;;;;;;7.62;3.25;;;;;;;12.71;37.64;102200.66;1755058;80;21530;-59
2021/10/10 09:22:22;;;;;;;8.98;3.67;;;;;;;12.77;36.78;102194.53;1757453;79;21142;-59
2021/10/10 09:24:52;;;;;;;6.95;3.08;;;;;;;12.81;36.40;102194.75;1741656;80;21044;-59
2021/10/10 09:27:19;;;;;;;10.98;3.27;;;;;;;12.89;36.41;102192.10;1753602;79;21088;-59
2021/10/10 09:29:47;;;;;;;7.45;3.67;;;;;;;12.93;36.01;102195.79;1753194;80;21055;-58
2021/10/10 09:32:18;;;;;;;7.65;3.35;;;;;;;12.97;36.06;102187.20;1754767;79;21079;-58
2021/10/10 09:34:46;;;;;;;8.95;2.52;;;;;;;13.08;36.22;102195.77;1737066;80;22195;-58
2021/10/10 09:37:21;;;;;;;7.47;4.25;;;;;;;13.20;36.32;102191.07;1752564;79;21573;-57
2021/10/10 09:40:00;;;;;;;5.37;2.60;;;;;;;13.35;36.45;102179.56;1759475;79;21596;-58
2021/10/10 09:42:37;;;;;;;6.85;2.70;;;;;;;13.47;34.84;102183.22;1761712;80;21013;-59
2021/10/10 09:48:02;;;;;;;6.20;2.75;;;;;;;13.69;34.54;102187.14;1753173;80;21055;-58
2021/10/10 09:50:34;;;;;;;7.00;2.90;;;;;;;13.80;34.47;102174.07;1736403;80;21076;-58
2021/10/10 09:53:09;;;;;;;6.03;3.00;;;;;;;13.92;33.97;102177.23;1772397;79;21053;-58
2021/10/10 09:55:38;;;;;;;;;;;;;;;14.01;33.76;102174.92;1755695;79;21170;-58
2021/10/10 09:58:05;;;;;;;8.98;3.05;;;;;;;14.10;33.41;102176.50;1742063;79;20203;-59
2021/10/10 10:00:35;;;;;;;7.08;3.20;;;;;;;14.13;33.94;102172.30;1755952;79;21147;-59
2021/10/10 10:03:08;;;;;;;8.63;3.22;;;;;;;14.28;33.73;102173.07;1752112;79;21094;-59
2021/10/10 10:05:35;;;;;;;6.58;2.70;;;;;;;14.48;33.53;102167.75;1758434;80;21528;-59
2021/10/10 10:08:02;;;;;;;8.13;3.22;;;;;;;14.64;32.32;102167.59;1741886;80;21133;-58
2021/10/10 10:10:31;;;;;;;7.50;2.80;;;;;;;14.72;32.92;102168.38;1752768;80;21633;-59
2021/10/10 10:13:00;;;;;;;6.33;3.20;;;;;;;14.86;32.88;102159.45;1739084;80;21045;-58
2021/10/10 10:15:32;;;;;;;7.10;3.02;;;;;;;14.94;32.35;102162.91;1751825;79;21055;-58
2021/10/10 10:17:58;;;;;;;8.18;2.87;;;;;;;14.96;31.46;102159.66;1754141;80;21095;-58
2021/10/10 10:20:26;;;;;;;7.85;2.83;;;;;;;14.93;31.29;102155.89;1736482;80;21035;-58
2021/10/10 10:22:56;;;;;;;6.33;2.60;;;;;;;14.94;31.38;102153.62;1759443;79;21098;-58
2021/10/10 10:25:24;;;;;;;7.72;2.72;;;;;;;14.95;31.85;102156.17;1755053;79;21423;-57
2021/10/10 10:27:51;;;;;;;7.10;2.35;;;;;;;15.01;32.03;102147.80;1758149;80;21047;-58
2021/10/10 10:30:18;;;;;;;5.67;2.22;;;;;;;15.11;31.90;102145.31;1755111;80;21539;-57
2021/10/10 10:32:45;;;;;;;5.90;2.42;;;;;;;15.21;32.00;102145.51;1762048;79;21027;-58
2021/10/10 10:35:16;;;;;;;7.75;2.70;;;;;;;15.32;31.39;102141.61;1755079;79;21161;-58
2021/10/10 10:37:47;;;;;;;5.55;2.47;;;;;;;15.37;31.64;102147.44;1755898;79;21950;-59
2021/10/10 10:40:28;;;;;;;6.08;2.27;;;;;;;15.48;31.66;102140.50;1755744;80;22078;-58
2021/10/10 10:42:56;;;;;;;5.37;2.27;;;;;;;15.61;31.60;102137.31;1751217;79;21058;-58
2021/10/10 10:45:39;;;;;;;5.03;2.12;;;;;;;15.73;31.12;102139.05;1755103;80;21032;-58
2021/10/10 10:48:11;;;;;;;5.12;2.20;;;;;;;15.83;31.13;102135.77;1752166;79;21039;-59
2021/10/10 10:50:44;;;;;;;4.83;2.10;;;;;;;15.92;31.05;102135.06;1731309;80;21075;-59
2021/10/10 10:53:15;;;;;;;4.87;2.25;;;;;;;16.00;31.17;102131.35;1753963;79;21085;-59
2021/10/10 10:55:47;;;;;;;7.28;3.10;;;;;;;16.10;31.18;102132.34;1758724;79;21017;-59
2021/10/10 10:58:15;;;;;;;6.55;2.80;;;;;;;16.17;30.14;102130.06;1764769;79;21713;-57
2021/10/10 11:00:44;;;;;;;6.12;3.00;;;;;;;16.23;30.04;102126.12;1756208;80;21048;-58
2021/10/10 11:03:25;;;;;;;5.28;2.83;;;;;;;16.26;29.69;102128.55;1757502;79;21099;-58
2021/10/10 11:05:57;;;;;;;8.80;2.98;;;;;;;16.23;29.63;102120.31;1739143;80;21074;-59
2021/10/10 11:08:34;;;;;;;5.55;2.40;;;;;;;16.27;29.76;102122.25;1740256;80;21062;-58
2021/10/10 11:11:08;;;;;;;6.53;2.30;;;;;;;16.33;30.06;102119.14;1752101;79;21062;-59
2021/10/10 11:13:44;;;;;;;6.50;2.30;;;;;;;16.44;30.40;102119.16;1739343;80;22018;-59
2021/10/10 11:16:16;;;;;;;;;;;;;;;16.54;29.69;102113.95;1757538;80;21111;-60
2021/10/10 11:18:53;;;;;;;4.37;1.95;;;;;;;16.64;29.55;102112.75;1753286;79;20502;-58
2021/10/10 11:21:26;;;;;;;5.42;2.12;;;;;;;16.63;28.93;102103.11;1777168;79;21257;-58
2021/10/10 11:23:57;;;;;;;5.20;2.20;;;;;;;16.70;29.27;102101.16;1767357;79;21587;-59
2021/10/10 11:26:23;;;;;;;4.30;1.52;;;;;;;16.79;29.04;102102.73;1759453;79;21390;-58
2021/10/10 11:28:56;;;;;;;4.53;1.70;;;;;;;16.85;29.37;102103.12;1739144;80;21031;-58
2021/10/10 11:31:31;;;;;;;3.95;1.32;;;;;;;16.94;28.74;102093.56;1758087;80;21129;-58
2021/10/10 11:34:08;;;;;;;4.62;1.50;;;;;;;17.03;28.41;102093.30;1755250;79;21084;-57